sensor_id;sensor_type;location;lat;lon;timestamp;temperature;humidity
66594;DHT22;53450;42.584;23.366;2022-09-21T00:00:03;7.10;75.50
66594;DHT22;53450;42.584;23.366;2022-09-21T00:02:30;7.07;75.86
66594;DHT22;53450;42.584;23.366;2022-09-21T00:05:06;7.01;75.58
66594;DHT22;53450;42.584;23.366;2022-09-21T00:07:35;6.94;75.94
66594;DHT22;53450;42.584;23.366;2022-09-21T00:10:03;6.87;76.09
66594;DHT22;53450;42.584;23.366;2022-09-21T00:12:32;6.86;77.05
66594;DHT22;53450;42.584;23.366;2022-09-21T00:14:57;6.90;76.24
66594;DHT22;53450;42.584;23.366;2022-09-21T00:17:29;6.86;76.33
66594;DHT22;53450;42.584;23.366;2022-09-21T00:19:59;6.84;76.08
66594;DHT22;53450;42.584;23.366;2022-09-21T00:22:30;6.89;76.44
66594;DHT22;53450;42.584;23.366;2022-09-21T00:25:23;6.86;75.99
66594;DHT22;53450;42.584;23.366;2022-09-21T00:27:49;6.90;76.34
66594;DHT22;53450;42.584;23.366;2022-09-21T00:30:16;6.94;76.56
66594;DHT22;53450;42.584;23.366;2022-09-21T00:32:42;7.00;76.73
66594;DHT22;53450;42.584;23.366;2022-09-21T00:35:08;6.75;77.56
66594;DHT22;53450;42.584;23.366;2022-09-21T00:37:43;6.65;77.64
66594;DHT22;53450;42.584;23.366;2022-09-21T00:40:11;6.80;76.72
66594;DHT22;53450;42.584;23.366;2022-09-21T00:42:39;6.80;76.46
66594;DHT22;53450;42.584;23.366;2022-09-21T00:45:13;6.91;75.76
66594;DHT22;53450;42.584;23.366;2022-09-21T00:47:50;6.99;75.85
66594;DHT22;53450;42.584;23.366;2022-09-21T00:50:21;7.11;75.42
66594;DHT22;53450;42.584;23.366;2022-09-21T00:52:52;7.12;75.81
66594;DHT22;53450;42.584;23.366;2022-09-21T00:55:29;7.20;75.40
66594;DHT22;53450;42.584;23.366;2022-09-21T00:58:03;7.28;76.22
66594;DHT22;53450;42.584;23.366;2022-09-21T01:00:58;7.21;76.57
66594;DHT22;53450;42.584;23.366;2022-09-21T01:03:52;7.17;76.35
66594;DHT22;53450;42.584;23.366;2022-09-21T01:06:25;7.17;76.20
66594;DHT22;53450;42.584;23.366;2022-09-21T01:09:04;7.18;76.50
66594;DHT22;53450;42.584;23.366;2022-09-21T01:14:30;7.32;76.27
66594;DHT22;53450;42.584;23.366;2022-09-21T01:17:11;7.39;75.88
66594;DHT22;53450;42.584;23.366;2022-09-21T01:31:24;7.25;77.28
66594;DHT22;53450;42.584;23.366;2022-09-21T01:34:06;7.21;77.87
66594;DHT22;53450;42.584;23.366;2022-09-21T01:36:37;7.18;77.58
66594;DHT22;53450;42.584;23.366;2022-09-21T01:39:11;7.14;77.67
66594;DHT22;53450;42.584;23.366;2022-09-21T01:41:41;7.14;77.92
66594;DHT22;53450;42.584;23.366;2022-09-21T01:44:21;7.12;77.86
66594;DHT22;53450;42.584;23.366;2022-09-21T01:46:48;7.03;77.87
66594;DHT22;53450;42.584;23.366;2022-09-21T01:49:25;6.87;78.49
66594;DHT22;53450;42.584;23.366;2022-09-21T01:51:58;6.93;78.22
66594;DHT22;53450;42.584;23.366;2022-09-21T01:55:23;7.14;78.00
66594;DHT22;53450;42.584;23.366;2022-09-21T01:58:08;7.15;77.70
66594;DHT22;53450;42.584;23.366;2022-09-21T02:00:54;7.12;77.56
66594;DHT22;53450;42.584;23.366;2022-09-21T02:05:55;6.97;77.63
66594;DHT22;53450;42.584;23.366;2022-09-21T02:08:23;7.04;77.28
66594;DHT22;53450;42.584;23.366;2022-09-21T02:10:53;7.07;77.00
66594;DHT22;53450;42.584;23.366;2022-09-21T02:13:22;7.12;76.37
66594;DHT22;53450;42.584;23.366;2022-09-21T02:21:08;7.14;77.00
66594;DHT22;53450;42.584;23.366;2022-09-21T02:24:10;7.04;77.06
66594;DHT22;53450;42.584;23.366;2022-09-21T02:26:45;6.97;77.25
66594;DHT22;53450;42.584;23.366;2022-09-21T02:29:22;6.89;77.09
66594;DHT22;53450;42.584;23.366;2022-09-21T02:32:04;6.65;77.98
66594;DHT22;53450;42.584;23.366;2022-09-21T02:34:39;6.76;77.73
66594;DHT22;53450;42.584;23.366;2022-09-21T02:37:27;6.66;77.74
66594;DHT22;53450;42.584;23.366;2022-09-21T02:42:37;6.35;79.46
66594;DHT22;53450;42.584;23.366;2022-09-21T02:45:25;6.54;78.73
66594;DHT22;53450;42.584;23.366;2022-09-21T02:47:57;6.60;78.38
66594;DHT22;53450;42.584;23.366;2022-09-21T02:50:30;6.69;77.79
66594;DHT22;53450;42.584;23.366;2022-09-21T02:53:03;6.70;77.73
66594;DHT22;53450;42.584;23.366;2022-09-21T02:55:40;6.50;78.48
66594;DHT22;53450;42.584;23.366;2022-09-21T02:58:11;6.65;78.01
66594;DHT22;53450;42.584;23.366;2022-09-21T03:00:41;6.35;78.44
66594;DHT22;53450;42.584;23.366;2022-09-21T03:03:15;6.53;78.16
66594;DHT22;53450;42.584;23.366;2022-09-21T03:05:43;6.60;77.82
66594;DHT22;53450;42.584;23.366;2022-09-21T03:08:09;6.52;77.76
66594;DHT22;53450;42.584;23.366;2022-09-21T03:10:39;6.41;78.01
66594;DHT22;53450;42.584;23.366;2022-09-21T03:13:09;6.43;78.10
66594;DHT22;53450;42.584;23.366;2022-09-21T03:15:38;6.29;77.93
66594;DHT22;53450;42.584;23.366;2022-09-21T03:18:08;5.95;79.04
66594;DHT22;53450;42.584;23.366;2022-09-21T03:20:41;6.12;79.00
66594;DHT22;53450;42.584;23.366;2022-09-21T03:23:35;6.14;78.82
66594;DHT22;53450;42.584;23.366;2022-09-21T03:26:01;6.11;78.45
66594;DHT22;53450;42.584;23.366;2022-09-21T03:28:27;6.00;78.74
66594;DHT22;53450;42.584;23.366;2022-09-21T03:30:55;5.86;79.08
66594;DHT22;53450;42.584;23.366;2022-09-21T03:33:31;5.66;79.54
66594;DHT22;53450;42.584;23.366;2022-09-21T03:36:00;5.64;79.90
66594;DHT22;53450;42.584;23.366;2022-09-21T03:38:30;5.60;79.90
66594;DHT22;53450;42.584;23.366;2022-09-21T03:41:04;5.50;80.14
66594;DHT22;53450;42.584;23.366;2022-09-21T03:43:40;5.60;80.14
66594;DHT22;53450;42.584;23.366;2022-09-21T03:46:12;5.57;80.28
66594;DHT22;53450;42.584;23.366;2022-09-21T03:48:38;5.64;79.92
66594;DHT22;53450;42.584;23.366;2022-09-21T03:51:09;5.71;79.50
66594;DHT22;53450;42.584;23.366;2022-09-21T03:53:51;5.67;79.51
66594;DHT22;53450;42.584;23.366;2022-09-21T03:56:20;5.60;79.72
66594;DHT22;53450;42.584;23.366;2022-09-21T03:58:46;5.54;80.03
66594;DHT22;53450;42.584;23.366;2022-09-21T04:01:16;5.52;79.99
66594;DHT22;53450;42.584;23.366;2022-09-21T04:03:47;5.43;80.20
66594;DHT22;53450;42.584;23.366;2022-09-21T04:06:14;5.36;80.72
66594;DHT22;53450;42.584;23.366;2022-09-21T04:08:52;5.35;80.79
66594;DHT22;53450;42.584;23.366;2022-09-21T04:11:20;5.35;80.70
66594;DHT22;53450;42.584;23.366;2022-09-21T04:13:51;5.33;80.57
66594;DHT22;53450;42.584;23.366;2022-09-21T04:16:23;5.32;80.58
66594;DHT22;53450;42.584;23.366;2022-09-21T04:18:50;5.26;80.78
66594;DHT22;53450;42.584;23.366;2022-09-21T04:21:22;5.18;80.75
66594;DHT22;53450;42.584;23.366;2022-09-21T04:23:48;5.05;81.30
66594;DHT22;53450;42.584;23.366;2022-09-21T04:26:30;4.99;81.70
66594;DHT22;53450;42.584;23.366;2022-09-21T04:29:05;5.29;80.94
66594;DHT22;53450;42.584;23.366;2022-09-21T04:31:36;5.29;80.60
66594;DHT22;53450;42.584;23.366;2022-09-21T04:34:12;5.35;80.97
66594;DHT22;53450;42.584;23.366;2022-09-21T04:36:48;5.54;80.28
66594;DHT22;53450;42.584;23.366;2022-09-21T04:39:16;5.59;80.40
66594;DHT22;53450;42.584;23.366;2022-09-21T04:41:44;5.63;80.02
66594;DHT22;53450;42.584;23.366;2022-09-21T04:44:22;5.64;80.05
66594;DHT22;53450;42.584;23.366;2022-09-21T04:46:53;5.67;80.13
66594;DHT22;53450;42.584;23.366;2022-09-21T04:49:20;5.78;80.09
66594;DHT22;53450;42.584;23.366;2022-09-21T04:51:51;5.74;80.21
66594;DHT22;53450;42.584;23.366;2022-09-21T04:54:17;5.75;80.02
66594;DHT22;53450;42.584;23.366;2022-09-21T04:56:48;5.49;80.12
66594;DHT22;53450;42.584;23.366;2022-09-21T04:59:25;5.53;80.08
66594;DHT22;53450;42.584;23.366;2022-09-21T05:01:55;5.74;79.54
66594;DHT22;53450;42.584;23.366;2022-09-21T05:04:31;5.86;79.43
66594;DHT22;53450;42.584;23.366;2022-09-21T05:07:24;5.83;79.88
66594;DHT22;53450;42.584;23.366;2022-09-21T05:09:55;6.02;79.26
66594;DHT22;53450;42.584;23.366;2022-09-21T05:12:34;6.17;78.87
66594;DHT22;53450;42.584;23.366;2022-09-21T05:15:05;6.36;78.49
66594;DHT22;53450;42.584;23.366;2022-09-21T05:17:31;6.38;78.74
66594;DHT22;53450;42.584;23.366;2022-09-21T05:19:57;6.63;78.29
66594;DHT22;53450;42.584;23.366;2022-09-21T05:22:33;6.96;77.58
66594;DHT22;53450;42.584;23.366;2022-09-21T05:25:11;7.28;75.73
66594;DHT22;53450;42.584;23.366;2022-09-21T05:27:39;7.54;73.90
66594;DHT22;53450;42.584;23.366;2022-09-21T05:30:11;7.78;74.22
66594;DHT22;53450;42.584;23.366;2022-09-21T05:33:00;7.69;75.84
66594;DHT22;53450;42.584;23.366;2022-09-21T05:35:44;7.36;76.86
66594;DHT22;53450;42.584;23.366;2022-09-21T05:38:17;7.44;77.20
66594;DHT22;53450;42.584;23.366;2022-09-21T05:40:43;7.58;77.01
66594;DHT22;53450;42.584;23.366;2022-09-21T05:43:13;7.61;75.97
66594;DHT22;53450;42.584;23.366;2022-09-21T05:45:43;7.65;76.16
66594;DHT22;53450;42.584;23.366;2022-09-21T05:48:20;7.69;75.95
66594;DHT22;53450;42.584;23.366;2022-09-21T05:50:53;7.70;76.02
66594;DHT22;53450;42.584;23.366;2022-09-21T05:56:02;7.89;75.66
66594;DHT22;53450;42.584;23.366;2022-09-21T06:03:49;8.11;75.12
66594;DHT22;53450;42.584;23.366;2022-09-21T06:06:22;8.20;75.40
66594;DHT22;53450;42.584;23.366;2022-09-21T06:08:58;8.37;74.78
66594;DHT22;53450;42.584;23.366;2022-09-21T06:11:24;8.38;74.77
66594;DHT22;53450;42.584;23.366;2022-09-21T06:14:01;8.38;75.30
66594;DHT22;53450;42.584;23.366;2022-09-21T06:16:39;8.45;74.76
66594;DHT22;53450;42.584;23.366;2022-09-21T06:19:10;8.37;74.90
66594;DHT22;53450;42.584;23.366;2022-09-21T06:21:36;8.33;74.87
66594;DHT22;53450;42.584;23.366;2022-09-21T06:24:05;8.34;75.04
66594;DHT22;53450;42.584;23.366;2022-09-21T06:26:36;8.54;73.77
66594;DHT22;53450;42.584;23.366;2022-09-21T06:29:13;8.48;73.70
66594;DHT22;53450;42.584;23.366;2022-09-21T06:32:05;8.37;72.02
66594;DHT22;53450;42.584;23.366;2022-09-21T06:34:52;8.48;70.47
66594;DHT22;53450;42.584;23.366;2022-09-21T06:37:21;8.67;68.48
66594;DHT22;53450;42.584;23.366;2022-09-21T06:39:54;8.78;67.64
66594;DHT22;53450;42.584;23.366;2022-09-21T06:42:23;8.88;67.85
66594;DHT22;53450;42.584;23.366;2022-09-21T06:44:52;9.00;67.51
66594;DHT22;53450;42.584;23.366;2022-09-21T06:47:20;9.02;66.12
66594;DHT22;53450;42.584;23.366;2022-09-21T06:49:46;8.95;66.40
66594;DHT22;53450;42.584;23.366;2022-09-21T06:52:15;9.10;66.29
66594;DHT22;53450;42.584;23.366;2022-09-21T06:54:41;9.02;65.98
66594;DHT22;53450;42.584;23.366;2022-09-21T06:57:07;9.02;66.12
66594;DHT22;53450;42.584;23.366;2022-09-21T06:59:37;8.98;66.49
66594;DHT22;53450;42.584;23.366;2022-09-21T07:02:03;9.05;66.24
66594;DHT22;53450;42.584;23.366;2022-09-21T07:04:31;8.99;67.01
66594;DHT22;53450;42.584;23.366;2022-09-21T07:06:57;9.17;67.27
66594;DHT22;53450;42.584;23.366;2022-09-21T07:09:26;9.26;66.48
66594;DHT22;53450;42.584;23.366;2022-09-21T07:11:54;9.70;65.89
66594;DHT22;53450;42.584;23.366;2022-09-21T07:14:36;9.87;64.93
66594;DHT22;53450;42.584;23.366;2022-09-21T07:17:15;10.06;65.82
66594;DHT22;53450;42.584;23.366;2022-09-21T07:24:04;10.47;64.35
66594;DHT22;53450;42.584;23.366;2022-09-21T07:26:42;10.40;63.79
66594;DHT22;53450;42.584;23.366;2022-09-21T07:32:53;10.26;64.06
66594;DHT22;53450;42.584;23.366;2022-09-21T07:35:29;10.32;64.61
66594;DHT22;53450;42.584;23.366;2022-09-21T07:37:59;10.33;64.67
66594;DHT22;53450;42.584;23.366;2022-09-21T07:40:26;10.39;64.82
66594;DHT22;53450;42.584;23.366;2022-09-21T07:42:52;10.35;64.25
66594;DHT22;53450;42.584;23.366;2022-09-21T07:45:21;10.40;64.76
66594;DHT22;53450;42.584;23.366;2022-09-21T07:47:47;10.30;65.38
66594;DHT22;53450;42.584;23.366;2022-09-21T07:50:12;10.52;65.32
66594;DHT22;53450;42.584;23.366;2022-09-21T07:52:38;10.78;64.93
66594;DHT22;53450;42.584;23.366;2022-09-21T07:55:04;10.73;64.24
66594;DHT22;53450;42.584;23.366;2022-09-21T07:57:30;10.78;64.53
66594;DHT22;53450;42.584;23.366;2022-09-21T08:00:14;10.70;64.89
66594;DHT22;53450;42.584;23.366;2022-09-21T08:02:39;10.50;64.47
66594;DHT22;53450;42.584;23.366;2022-09-21T08:05:05;10.73;61.66
66594;DHT22;53450;42.584;23.366;2022-09-21T08:07:31;10.60;62.75
66594;DHT22;53450;42.584;23.366;2022-09-21T08:09:57;10.74;62.86
66594;DHT22;53450;42.584;23.366;2022-09-21T08:12:22;10.80;62.28
66594;DHT22;53450;42.584;23.366;2022-09-21T08:14:48;10.94;61.79
66594;DHT22;53450;42.584;23.366;2022-09-21T08:17:14;10.98;63.02
66594;DHT22;53450;42.584;23.366;2022-09-21T08:19:40;11.05;61.69
66594;DHT22;53450;42.584;23.366;2022-09-21T08:22:06;11.04;61.10
66594;DHT22;53450;42.584;23.366;2022-09-21T08:24:32;10.97;59.37
66594;DHT22;53450;42.584;23.366;2022-09-21T08:27:01;10.94;58.61
66594;DHT22;53450;42.584;23.366;2022-09-21T08:29:26;11.08;59.74
66594;DHT22;53450;42.584;23.366;2022-09-21T08:31:53;10.90;59.48
66594;DHT22;53450;42.584;23.366;2022-09-21T08:34:19;10.94;60.71
66594;DHT22;53450;42.584;23.366;2022-09-21T08:36:45;10.91;62.42
66594;DHT22;53450;42.584;23.366;2022-09-21T08:39:11;10.84;61.03
66594;DHT22;53450;42.584;23.366;2022-09-21T08:44:52;10.60;61.30
66594;DHT22;53450;42.584;23.366;2022-09-21T08:50:01;10.71;61.78
66594;DHT22;53450;42.584;23.366;2022-09-21T08:52:29;10.78;62.94
66594;DHT22;53450;42.584;23.366;2022-09-21T08:55:06;10.84;61.86
66594;DHT22;53450;42.584;23.366;2022-09-21T08:57:34;10.71;61.07
66594;DHT22;53450;42.584;23.366;2022-09-21T09:00:00;10.85;61.36
66594;DHT22;53450;42.584;23.366;2022-09-21T09:05:46;10.97;61.54
66594;DHT22;53450;42.584;23.366;2022-09-21T09:08:52;11.04;61.88
66594;DHT22;53450;42.584;23.366;2022-09-21T09:11:42;11.16;61.55
66594;DHT22;53450;42.584;23.366;2022-09-21T09:19:57;11.26;58.78
66594;DHT22;53450;42.584;23.366;2022-09-21T09:22:30;11.31;58.66
66594;DHT22;53450;42.584;23.366;2022-09-21T09:25:03;11.21;59.61
66594;DHT22;53450;42.584;23.366;2022-09-21T09:27:38;11.28;59.27
66594;DHT22;53450;42.584;23.366;2022-09-21T09:35:47;12.05;57.04
66594;DHT22;53450;42.584;23.366;2022-09-21T09:49:26;12.05;59.73
66594;DHT22;53450;42.584;23.366;2022-09-21T09:51:52;11.74;59.38
66594;DHT22;53450;42.584;23.366;2022-09-21T09:54:20;11.66;60.47
66594;DHT22;53450;42.584;23.366;2022-09-21T09:56:47;11.74;60.56
66594;DHT22;53450;42.584;23.366;2022-09-21T09:59:42;11.61;60.62
66594;DHT22;53450;42.584;23.366;2022-09-21T10:02:24;11.62;60.71
66594;DHT22;53450;42.584;23.366;2022-09-21T10:05:03;11.72;60.00
66594;DHT22;53450;42.584;23.366;2022-09-21T10:07:39;12.16;58.23
66594;DHT22;53450;42.584;23.366;2022-09-21T10:10:36;11.98;59.42
66594;DHT22;53450;42.584;23.366;2022-09-21T10:13:12;12.01;57.56
66594;DHT22;53450;42.584;23.366;2022-09-21T10:16:05;11.90;57.76
66594;DHT22;53450;42.584;23.366;2022-09-21T10:21:02;11.69;57.93
66594;DHT22;53450;42.584;23.366;2022-09-21T10:23:30;11.69;58.91
66594;DHT22;53450;42.584;23.366;2022-09-21T10:26:03;11.61;58.74
66594;DHT22;53450;42.584;23.366;2022-09-21T10:28:29;11.80;58.67
66594;DHT22;53450;42.584;23.366;2022-09-21T10:33:51;11.70;58.33
66594;DHT22;53450;42.584;23.366;2022-09-21T10:36:24;11.36;58.35
66594;DHT22;53450;42.584;23.366;2022-09-21T10:38:51;11.45;58.53
66594;DHT22;53450;42.584;23.366;2022-09-21T10:41:17;11.15;59.01
66594;DHT22;53450;42.584;23.366;2022-09-21T10:43:45;11.14;60.56
66594;DHT22;53450;42.584;23.366;2022-09-21T10:46:13;11.42;60.16
66594;DHT22;53450;42.584;23.366;2022-09-21T10:48:38;11.53;58.43
66594;DHT22;53450;42.584;23.366;2022-09-21T10:51:04;11.95;57.61
66594;DHT22;53450;42.584;23.366;2022-09-21T10:53:34;12.22;57.03
66594;DHT22;53450;42.584;23.366;2022-09-21T10:58:30;12.76;54.83
66594;DHT22;53450;42.584;23.366;2022-09-21T11:01:09;12.48;54.96
66594;DHT22;53450;42.584;23.366;2022-09-21T11:06:36;12.44;53.63
66594;DHT22;53450;42.584;23.366;2022-09-21T11:09:28;12.80;52.96
66594;DHT22;53450;42.584;23.366;2022-09-21T11:14:40;13.26;49.95
66594;DHT22;53450;42.584;23.366;2022-09-21T11:26:41;12.93;52.39
66594;DHT22;53450;42.584;23.366;2022-09-21T11:29:14;12.79;52.85
66594;DHT22;53450;42.584;23.366;2022-09-21T11:46:24;12.96;50.81
66594;DHT22;53450;42.584;23.366;2022-09-21T12:00:17;12.72;50.45
66594;DHT22;53450;42.584;23.366;2022-09-21T12:05:55;12.52;51.83
66594;DHT22;53450;42.584;23.366;2022-09-21T12:11:42;12.24;57.45
66594;DHT22;53450;42.584;23.366;2022-09-21T12:20:02;12.38;57.49
66594;DHT22;53450;42.584;23.366;2022-09-21T12:23:02;12.11;58.19
66594;DHT22;53450;42.584;23.366;2022-09-21T12:25:42;11.86;59.51
66594;DHT22;53450;42.584;23.366;2022-09-21T12:28:20;11.86;60.33
66594;DHT22;53450;42.584;23.366;2022-09-21T12:31:25;11.89;60.48
66594;DHT22;53450;42.584;23.366;2022-09-21T12:33:55;11.83;60.19
66594;DHT22;53450;42.584;23.366;2022-09-21T12:36:27;11.72;60.10
66594;DHT22;53450;42.584;23.366;2022-09-21T12:39:31;11.63;60.61
66594;DHT22;53450;42.584;23.366;2022-09-21T12:42:06;11.61;61.32
66594;DHT22;53450;42.584;23.366;2022-09-21T12:49:50;11.53;61.84
66594;DHT22;53450;42.584;23.366;2022-09-21T12:52:22;11.49;62.94
66594;DHT22;53450;42.584;23.366;2022-09-21T12:55:17;11.42;63.83
66594;DHT22;53450;42.584;23.366;2022-09-21T13:00:19;11.29;63.26
66594;DHT22;53450;42.584;23.366;2022-09-21T13:08:46;11.03;63.42
66594;DHT22;53450;42.584;23.366;2022-09-21T13:11:55;11.19;63.49
66594;DHT22;53450;42.584;23.366;2022-09-21T13:14:30;11.26;62.05
66594;DHT22;53450;42.584;23.366;2022-09-21T13:17:01;11.22;62.47
66594;DHT22;53450;42.584;23.366;2022-09-21T13:19:30;11.19;63.33
66594;DHT22;53450;42.584;23.366;2022-09-21T13:22:32;11.46;62.52
66594;DHT22;53450;42.584;23.366;2022-09-21T13:33:36;12.11;59.36
66594;DHT22;53450;42.584;23.366;2022-09-21T13:36:31;12.51;57.40
66594;DHT22;53450;42.584;23.366;2022-09-21T13:39:11;12.82;57.23
66594;DHT22;53450;42.584;23.366;2022-09-21T13:41:38;12.53;55.08
66594;DHT22;53450;42.584;23.366;2022-09-21T13:44:16;12.56;54.51
66594;DHT22;53450;42.584;23.366;2022-09-21T14:02:40;12.61;53.14
66594;DHT22;53450;42.584;23.366;2022-09-21T14:07:54;12.04;55.74
66594;DHT22;53450;42.584;23.366;2022-09-21T14:10:21;12.13;55.78
66594;DHT22;53450;42.584;23.366;2022-09-21T14:12:49;12.00;55.80
66594;DHT22;53450;42.584;23.366;2022-09-21T14:17:41;11.90;56.16
66594;DHT22;53450;42.584;23.366;2022-09-21T14:20:30;11.69;56.30
66594;DHT22;53450;42.584;23.366;2022-09-21T14:25:51;11.77;57.02
66594;DHT22;53450;42.584;23.366;2022-09-21T14:28:26;12.05;56.84
66594;DHT22;53450;42.584;23.366;2022-09-21T14:30:59;12.11;56.01
66594;DHT22;53450;42.584;23.366;2022-09-21T14:33:29;12.13;55.49
66594;DHT22;53450;42.584;23.366;2022-09-21T14:35:59;12.16;54.88
66594;DHT22;53450;42.584;23.366;2022-09-21T14:38:30;12.10;56.16
66594;DHT22;53450;42.584;23.366;2022-09-21T14:41:31;12.07;54.95
66594;DHT22;53450;42.584;23.366;2022-09-21T14:43:59;11.98;55.18
66594;DHT22;53450;42.584;23.366;2022-09-21T14:59:49;10.57;68.51
66594;DHT22;53450;42.584;23.366;2022-09-21T15:02:32;10.45;75.19
66594;DHT22;53450;42.584;23.366;2022-09-21T15:05:11;10.26;75.37
66594;DHT22;53450;42.584;23.366;2022-09-21T15:08:01;10.13;76.93
66594;DHT22;53450;42.584;23.366;2022-09-21T15:11:12;10.08;77.15
66594;DHT22;53450;42.584;23.366;2022-09-21T15:13:48;10.10;76.70
66594;DHT22;53450;42.584;23.366;2022-09-21T15:19:13;10.19;78.40
66594;DHT22;53450;42.584;23.366;2022-09-21T15:21:52;10.33;79.94
66594;DHT22;53450;42.584;23.366;2022-09-21T15:24:30;10.33;74.80
66594;DHT22;53450;42.584;23.366;2022-09-21T15:27:08;10.40;71.25
66594;DHT22;53450;42.584;23.366;2022-09-21T15:29:37;10.43;73.28
66594;DHT22;53450;42.584;23.366;2022-09-21T15:32:05;10.45;72.68
66594;DHT22;53450;42.584;23.366;2022-09-21T15:34:31;10.36;70.12
66594;DHT22;53450;42.584;23.366;2022-09-21T15:37:15;10.23;70.21
66594;DHT22;53450;42.584;23.366;2022-09-21T15:39:44;10.01;70.72
66594;DHT22;53450;42.584;23.366;2022-09-21T15:42:15;10.05;72.94
66594;DHT22;53450;42.584;23.366;2022-09-21T15:44:43;9.94;72.12
66594;DHT22;53450;42.584;23.366;2022-09-21T15:47:14;9.91;71.02
66594;DHT22;53450;42.584;23.366;2022-09-21T15:49:41;9.74;68.37
66594;DHT22;53450;42.584;23.366;2022-09-21T15:52:31;9.71;69.61
66594;DHT22;53450;42.584;23.366;2022-09-21T15:55:03;9.65;70.10
66594;DHT22;53450;42.584;23.366;2022-09-21T16:00:17;9.58;69.27
66594;DHT22;53450;42.584;23.366;2022-09-21T16:05:21;9.48;69.67
66594;DHT22;53450;42.584;23.366;2022-09-21T16:07:48;9.52;69.88
66594;DHT22;53450;42.584;23.366;2022-09-21T16:13:10;9.52;69.08
66594;DHT22;53450;42.584;23.366;2022-09-21T16:16:10;9.54;68.95
66594;DHT22;53450;42.584;23.366;2022-09-21T16:18:49;9.50;68.40
66594;DHT22;53450;42.584;23.366;2022-09-21T16:21:40;9.43;69.18
66594;DHT22;53450;42.584;23.366;2022-09-21T16:24:31;9.48;69.25
66594;DHT22;53450;42.584;23.366;2022-09-21T16:27:00;9.47;67.37
66594;DHT22;53450;42.584;23.366;2022-09-21T16:29:40;9.47;66.47
66594;DHT22;53450;42.584;23.366;2022-09-21T16:32:30;9.41;67.07
66594;DHT22;53450;42.584;23.366;2022-09-21T16:35:22;9.23;68.06
66594;DHT22;53450;42.584;23.366;2022-09-21T16:37:54;9.13;69.27
66594;DHT22;53450;42.584;23.366;2022-09-21T16:40:23;8.96;69.96
66594;DHT22;53450;42.584;23.366;2022-09-21T16:42:49;8.92;70.74
66594;DHT22;53450;42.584;23.366;2022-09-21T16:45:28;8.73;71.66
66594;DHT22;53450;42.584;23.366;2022-09-21T16:47:58;8.65;70.76
66594;DHT22;53450;42.584;23.366;2022-09-21T16:50:31;8.78;71.66
66594;DHT22;53450;42.584;23.366;2022-09-21T16:52:57;8.92;70.32
66594;DHT22;53450;42.584;23.366;2022-09-21T16:55:23;8.99;68.97
66594;DHT22;53450;42.584;23.366;2022-09-21T16:57:48;8.99;69.86
66594;DHT22;53450;42.584;23.366;2022-09-21T17:02:40;8.99;69.63
66594;DHT22;53450;42.584;23.366;2022-09-21T17:05:10;8.95;68.80
66594;DHT22;53450;42.584;23.366;2022-09-21T17:07:57;8.89;70.78
66594;DHT22;53450;42.584;23.366;2022-09-21T17:10:33;8.85;71.06
66594;DHT22;53450;42.584;23.366;2022-09-21T17:13:07;8.71;72.78
66594;DHT22;53450;42.584;23.366;2022-09-21T17:15:38;8.72;72.66
66594;DHT22;53450;42.584;23.366;2022-09-21T17:18:05;8.71;73.10
66594;DHT22;53450;42.584;23.366;2022-09-21T17:20:57;8.73;73.31
66594;DHT22;53450;42.584;23.366;2022-09-21T17:23:36;8.67;69.78
66594;DHT22;53450;42.584;23.366;2022-09-21T17:26:11;8.64;69.98
66594;DHT22;53450;42.584;23.366;2022-09-21T17:28:46;8.62;70.97
66594;DHT22;53450;42.584;23.366;2022-09-21T17:31:14;8.59;71.65
66594;DHT22;53450;42.584;23.366;2022-09-21T17:33:41;8.61;72.36
66594;DHT22;53450;42.584;23.366;2022-09-21T17:36:13;8.68;72.42
66594;DHT22;53450;42.584;23.366;2022-09-21T17:38:39;8.72;73.08
66594;DHT22;53450;42.584;23.366;2022-09-21T17:41:23;8.64;73.08
66594;DHT22;53450;42.584;23.366;2022-09-21T17:47:03;8.52;74.75
66594;DHT22;53450;42.584;23.366;2022-09-21T17:49:30;8.52;75.36
66594;DHT22;53450;42.584;23.366;2022-09-21T17:52:33;8.45;74.85
66594;DHT22;53450;42.584;23.366;2022-09-21T17:55:20;8.34;75.19
66594;DHT22;53450;42.584;23.366;2022-09-21T18:00:23;8.33;73.91
66594;DHT22;53450;42.584;23.366;2022-09-21T18:02:55;8.27;73.32
66594;DHT22;53450;42.584;23.366;2022-09-21T18:05:27;8.34;72.83
66594;DHT22;53450;42.584;23.366;2022-09-21T18:07:56;8.31;71.36
66594;DHT22;53450;42.584;23.366;2022-09-21T18:22:01;8.21;71.73
66594;DHT22;53450;42.584;23.366;2022-09-21T18:25:11;8.26;72.31
66594;DHT22;53450;42.584;23.366;2022-09-21T18:27:39;8.24;70.82
66594;DHT22;53450;42.584;23.366;2022-09-21T18:30:25;8.28;71.77
66594;DHT22;53450;42.584;23.366;2022-09-21T18:33:16;8.28;72.33
66594;DHT22;53450;42.584;23.366;2022-09-21T18:38:34;8.27;71.55
66594;DHT22;53450;42.584;23.366;2022-09-21T18:43:43;8.40;71.71
66594;DHT22;53450;42.584;23.366;2022-09-21T18:46:55;8.41;71.85
66594;DHT22;53450;42.584;23.366;2022-09-21T18:49:49;8.34;72.15
66594;DHT22;53450;42.584;23.366;2022-09-21T18:54:52;8.21;72.71
66594;DHT22;53450;42.584;23.366;2022-09-21T18:57:23;8.33;72.66
66594;DHT22;53450;42.584;23.366;2022-09-21T18:59:58;8.33;72.89
66594;DHT22;53450;42.584;23.366;2022-09-21T19:02:34;8.26;73.00
66594;DHT22;53450;42.584;23.366;2022-09-21T19:05:06;8.17;73.36
66594;DHT22;53450;42.584;23.366;2022-09-21T19:10:24;8.03;74.16
66594;DHT22;53450;42.584;23.366;2022-09-21T19:22:43;7.83;75.24
66594;DHT22;53450;42.584;23.366;2022-09-21T19:25:26;7.83;75.76
66594;DHT22;53450;42.584;23.366;2022-09-21T19:28:04;7.83;75.66
66594;DHT22;53450;42.584;23.366;2022-09-21T19:31:07;7.87;75.38
66594;DHT22;53450;42.584;23.366;2022-09-21T19:33:49;7.91;75.81
66594;DHT22;53450;42.584;23.366;2022-09-21T19:36:38;7.90;75.06
66594;DHT22;53450;42.584;23.366;2022-09-21T19:39:14;7.90;75.72
66594;DHT22;53450;42.584;23.366;2022-09-21T19:47:30;8.04;73.97
66594;DHT22;53450;42.584;23.366;2022-09-21T19:50:16;8.00;74.19
66594;DHT22;53450;42.584;23.366;2022-09-21T19:52:48;7.99;74.02
66594;DHT22;53450;42.584;23.366;2022-09-21T19:55:44;7.94;74.11
66594;DHT22;53450;42.584;23.366;2022-09-21T19:58:37;8.01;74.55
66594;DHT22;53450;42.584;23.366;2022-09-21T20:01:24;8.13;74.10
66594;DHT22;53450;42.584;23.366;2022-09-21T20:03:57;8.20;73.53
66594;DHT22;53450;42.584;23.366;2022-09-21T20:06:46;8.19;73.60
66594;DHT22;53450;42.584;23.366;2022-09-21T20:09:28;8.17;73.06
66594;DHT22;53450;42.584;23.366;2022-09-21T20:14:39;8.31;73.42
66594;DHT22;53450;42.584;23.366;2022-09-21T20:17:11;8.16;72.82
66594;DHT22;53450;42.584;23.366;2022-09-21T20:22:37;8.20;73.94
66594;DHT22;53450;42.584;23.366;2022-09-21T20:25:25;8.06;74.42